Disclaimer

Please do not use the information listed here in-flight or in-navigation, as they are not provided to us by the airports but are provided by volunteers, so they might be outdated.

Search


Regions


Airport information page

Radio informations:
Tower (TWR) - 130.75 MHz
Ground (GND) - 130.75 MHz
Director (DIR) - 130.0 MHz
ZONE - 126.7 MHz
Automatic Terminal Information Service (ATIS) - 275.725 MHz
Approach (APP) - 130.0 MHz

Airport informations:
Latitude: 51° 09' 07.88" N
Longitude: 001° 44' 50.69" W
Elevation: 407 feet - 124 meters
Operating hours: Remarks
Operating agency: Military
Timezone: UTC 0(+1DT) - Last Sunday in March to last Sunday in October
Fuel: N/A

Runway information:
05/23 - 10538 x 150 feet< - >3212 x 46 meters
17/35 - 6278 x 150 feet< - >1914 x 46 meters

Recent METARs:
EGDM 191950Z 02014KT 9999 FEW017 BKN050 05/03 Q1015 BLU TEMPO 7000 -SHRA SCT016 WHT
EGDM 192050Z 05012KT 9999 -SHRA SCT016 BKN050 05/03 Q1015 WHT BECMG FEW016 BLU
EGDM 192107Z 04009KT 9999 FEW016 BKN060 04/03 Q1015 BLU NOSIG

Airport on the map: